createdAt,value
2023-03-26T00:01:29.588Z,99660.25
2023-03-26T00:03:57.827Z,99646.22
2023-03-26T00:06:30.938Z,99657.56
2023-03-26T00:08:58.833Z,99654.66
2023-03-26T00:11:27.837Z,99651.00
2023-03-26T00:13:57.625Z,99659.09
2023-03-26T00:16:27.048Z,99664.47
2023-03-26T00:18:54.302Z,99662.78
2023-03-26T00:21:28.236Z,99667.47
2023-03-26T00:24:04.747Z,99672.69
2023-03-26T00:26:33.561Z,99669.81
2023-03-26T00:29:01.056Z,99675.50
2023-03-26T00:31:28.254Z,99674.53
2023-03-26T00:33:56.678Z,99671.50
2023-03-26T00:36:25.687Z,99666.63
2023-03-26T00:38:53.810Z,99670.44
2023-03-26T00:41:23.165Z,99672.16
2023-03-26T00:43:53.337Z,99678.19
2023-03-26T00:46:21.127Z,99675.50
2023-03-26T00:48:48.365Z,99672.16
2023-03-26T00:51:17.774Z,99667.47
2023-03-26T00:53:46.472Z,99675.50
2023-03-26T00:56:14.339Z,99669.16
2023-03-26T00:58:41.792Z,99682.56
2023-03-26T01:01:15.019Z,99677.34
2023-03-26T01:03:50.351Z,99670.44
2023-03-26T01:06:36.066Z,99676.13
2023-03-26T01:09:11.397Z,99665.09
2023-03-26T01:11:38.564Z,99661.44
2023-03-26T01:14:11.225Z,99671.47
2023-03-26T01:16:52.089Z,99669.78
2023-03-26T01:19:29.928Z,99668.09
2023-03-26T01:21:58.258Z,99670.44
2023-03-26T01:24:25.575Z,99666.78
2023-03-26T01:27:25.594Z,99660.88
2023-03-26T01:29:56.704Z,99669.91
2023-03-26T01:32:30.941Z,99661.03
2023-03-26T01:35:21.195Z,99672.47
2023-03-26T01:38:26.182Z,99662.41
2023-03-26T01:41:17.849Z,99667.09
2023-03-26T01:43:50.621Z,99662.72
2023-03-26T01:46:19.587Z,99667.41
2023-03-26T01:48:46.928Z,99663.09
2023-03-26T01:51:24.149Z,99663.41
2023-03-26T01:53:51.369Z,99660.34
2023-03-26T01:56:21.897Z,99650.78
2023-03-26T01:59:27.133Z,99657.53
2023-03-26T02:02:09.326Z,99660.88
2023-03-26T02:04:53.059Z,99668.78
2023-03-26T02:07:28.730Z,99668.09
2023-03-26T02:09:59.613Z,99674.44
2023-03-26T02:12:27.474Z,99676.44
2023-03-26T02:14:54.707Z,99687.16
2023-03-26T02:17:24.313Z,99685.19
2023-03-26T02:19:51.634Z,99686.84
2023-03-26T02:22:19.019Z,99693.22
2023-03-26T02:24:46.264Z,99701.59
2023-03-26T02:27:13.508Z,99712.13
2023-03-26T02:29:42.485Z,99693.38
2023-03-26T02:32:13.792Z,99693.22
2023-03-26T02:34:41.589Z,99692.53
2023-03-26T02:37:09.366Z,99700.75
2023-03-26T02:39:36.543Z,99700.44
2023-03-26T02:42:03.732Z,99706.09
2023-03-26T02:44:30.892Z,99700.56
2023-03-26T02:46:58.103Z,99704.25
2023-03-26T02:49:25.298Z,99710.31
2023-03-26T02:51:56.173Z,99702.59
2023-03-26T02:54:23.748Z,99706.25
2023-03-26T02:56:51.318Z,99699.91
2023-03-26T02:59:18.726Z,99705.41
2023-03-26T03:01:45.951Z,99706.56
2023-03-26T03:04:13.552Z,99706.09
2023-03-26T03:06:40.895Z,99716.00
2023-03-26T03:09:11.810Z,99716.97
2023-03-26T03:11:40.686Z,99717.69
2023-03-26T03:14:07.877Z,99722.34
2023-03-26T03:16:35.091Z,99714.59
2023-03-26T03:19:02.900Z,99716.31
2023-03-26T03:21:30.219Z,99719.81
2023-03-26T03:24:00.029Z,99716.97
2023-03-26T03:26:29.604Z,99721.66
2023-03-26T03:28:57.486Z,99723.03
2023-03-26T03:31:26.392Z,99722.03
2023-03-26T03:33:53.659Z,99724.72
2023-03-26T03:36:22.636Z,99726.03
2023-03-26T03:38:50.303Z,99723.34
2023-03-26T03:41:18.566Z,99726.34
2023-03-26T03:43:46.465Z,99724.50
2023-03-26T03:46:13.793Z,99723.34
2023-03-26T03:48:40.992Z,99724.50
2023-03-26T03:51:08.237Z,99731.56
2023-03-26T03:53:37.261Z,99733.25
2023-03-26T03:56:10.035Z,99732.53
2023-03-26T03:58:37.342Z,99729.19
2023-03-26T04:01:04.651Z,99732.72
2023-03-26T04:03:33.512Z,99731.56
2023-03-26T04:06:02.141Z,99732.72
2023-03-26T04:08:30.196Z,99728.19
2023-03-26T04:10:57.345Z,99727.34
2023-03-26T04:13:24.575Z,99741.41
2023-03-26T04:15:51.811Z,99739.59
2023-03-26T04:18:20.288Z,99732.84
2023-03-26T04:20:47.624Z,99729.31
2023-03-26T04:23:15.925Z,99733.25
2023-03-26T04:25:48.203Z,99728.31
2023-03-26T04:28:32.219Z,99730.84
2023-03-26T04:31:06.929Z,99725.63
2023-03-26T04:33:35.476Z,99730.03
2023-03-26T04:36:03.491Z,99729.03
2023-03-26T04:38:33.516Z,99727.66
2023-03-26T04:41:04.000Z,99726.94
2023-03-26T04:43:35.406Z,99727.66
2023-03-26T04:46:05.227Z,99730.31
2023-03-26T04:48:32.687Z,99733.00
2023-03-26T04:51:00.388Z,99734.69
2023-03-26T04:53:27.561Z,99736.69
2023-03-26T04:55:59.846Z,99735.00
2023-03-26T04:58:32.655Z,99730.16
2023-03-26T05:01:01.182Z,99731.34
2023-03-26T05:03:39.562Z,99733.16
2023-03-26T05:06:06.870Z,99734.38
2023-03-26T05:08:34.036Z,99735.69
2023-03-26T05:11:01.608Z,99732.63
2023-03-26T05:13:28.831Z,99735.00
2023-03-26T05:15:56.258Z,99734.00
2023-03-26T05:18:23.426Z,99738.22
2023-03-26T05:20:51.959Z,99739.75
2023-03-26T05:23:19.146Z,99734.69
2023-03-26T05:25:47.120Z,99737.69
2023-03-26T05:28:14.435Z,99735.16
2023-03-26T05:30:43.545Z,99736.13
2023-03-26T05:33:10.830Z,99733.69
2023-03-26T05:35:38.089Z,99739.69
2023-03-26T05:38:06.472Z,99734.84
2023-03-26T05:40:33.630Z,99740.22
2023-03-26T05:43:00.780Z,99747.44
2023-03-26T05:45:27.932Z,99742.38
2023-03-26T05:47:55.831Z,99737.69
2023-03-26T05:50:23.488Z,99744.75
2023-03-26T05:52:50.943Z,99745.59
2023-03-26T05:55:18.512Z,99750.94
2023-03-26T05:57:45.971Z,99739.38
2023-03-26T06:00:13.338Z,99741.19
2023-03-26T06:02:42.801Z,99746.88
2023-03-26T06:05:10.144Z,99745.72
2023-03-26T06:07:37.334Z,99743.34
2023-03-26T06:10:04.680Z,99750.09
2023-03-26T06:12:32.058Z,99755.59
2023-03-26T06:14:59.211Z,99752.78
2023-03-26T06:17:26.426Z,99746.41
2023-03-26T06:19:53.603Z,99755.31
2023-03-26T06:22:20.848Z,99753.63
2023-03-26T06:24:48.074Z,99758.28
2023-03-26T06:27:15.357Z,99760.84
2023-03-26T06:29:42.536Z,99759.00
2023-03-26T06:32:19.122Z,99762.50
2023-03-26T06:34:47.454Z,99759.44
2023-03-26T06:37:14.735Z,99760.13
2023-03-26T06:39:41.916Z,99759.28
2023-03-26T06:42:09.215Z,99762.81
2023-03-26T06:44:36.471Z,99762.13
2023-03-26T06:47:03.667Z,99765.78
2023-03-26T06:49:30.932Z,99769.31
2023-03-26T06:51:58.109Z,99765.50
2023-03-26T06:54:25.316Z,99773.53
2023-03-26T06:56:52.641Z,99770.03
2023-03-26T06:59:21.468Z,99773.38
2023-03-26T07:01:48.628Z,99769.00
2023-03-26T07:04:15.966Z,99770.25
2023-03-26T07:06:43.155Z,99763.66
2023-03-26T07:09:10.516Z,99768.00
2023-03-26T07:11:37.692Z,99769.63
2023-03-26T07:14:05.238Z,99761.59
2023-03-26T07:16:32.507Z,99762.03
2023-03-26T07:19:00.528Z,99767.41
2023-03-26T07:21:28.172Z,99768.41
2023-03-26T07:23:56.697Z,99762.34
2023-03-26T07:26:23.975Z,99764.19
2023-03-26T07:29:07.692Z,99766.88
2023-03-26T07:31:48.426Z,99766.56
2023-03-26T07:34:54.476Z,99768.94
2023-03-26T07:37:33.617Z,99771.63
2023-03-26T07:40:14.232Z,99777.81
2023-03-26T07:42:44.121Z,99771.94
2023-03-26T07:45:33.816Z,99762.22
2023-03-26T07:48:02.129Z,99762.34
2023-03-26T07:50:29.368Z,99766.19
2023-03-26T07:52:56.780Z,99761.19
2023-03-26T07:55:24.575Z,99764.88
2023-03-26T07:58:19.898Z,99765.03
2023-03-26T08:01:15.745Z,99755.69
2023-03-26T08:04:23.112Z,99758.50
2023-03-26T08:07:25.917Z,99762.25
2023-03-26T08:10:05.621Z,99753.69
2023-03-26T08:12:48.873Z,99761.91
2023-03-26T08:15:32.462Z,99756.69
2023-03-26T08:18:17.000Z,99760.91
2023-03-26T08:20:54.333Z,99763.50
2023-03-26T08:23:50.272Z,99754.78
2023-03-26T08:26:38.586Z,99763.72
2023-03-26T08:29:18.783Z,99761.09
2023-03-26T08:31:48.421Z,99746.38
2023-03-26T08:34:15.795Z,99746.25
2023-03-26T08:36:43.037Z,99758.81
2023-03-26T08:39:10.335Z,99746.19
2023-03-26T08:41:56.295Z,99749.25
2023-03-26T08:44:50.206Z,99747.88
2023-03-26T08:47:39.339Z,99746.56
2023-03-26T08:50:28.639Z,99740.66
2023-03-26T08:53:38.890Z,99744.00
2023-03-26T08:56:27.340Z,99746.44
2023-03-26T08:59:04.800Z,99738.97
2023-03-26T09:01:51.564Z,99733.31
2023-03-26T09:04:29.970Z,99727.44
2023-03-26T09:07:34.956Z,99730.88
2023-03-26T09:10:30.954Z,99728.22
2023-03-26T09:13:34.269Z,99737.28
2023-03-26T09:16:34.538Z,99728.28
2023-03-26T09:19:31.950Z,99720.06
2023-03-26T09:22:06.884Z,99727.56
2023-03-26T09:25:08.774Z,99723.75
2023-03-26T09:27:59.160Z,99723.16
2023-03-26T09:30:43.785Z,99714.94
2023-03-26T09:33:21.896Z,99715.47
2023-03-26T09:36:15.866Z,99714.28
2023-03-26T09:38:45.649Z,99719.59
2023-03-26T09:41:25.298Z,99725.13
2023-03-26T09:44:01.590Z,99724.63
2023-03-26T09:47:00.500Z,99723.09
2023-03-26T09:50:04.694Z,99717.41
2023-03-26T09:52:51.371Z,99717.25
2023-03-26T09:55:35.035Z,99726.00
2023-03-26T09:58:19.192Z,99721.63
2023-03-26T10:00:54.889Z,99724.63
2023-03-26T10:03:47.009Z,99721.25
2023-03-26T10:06:22.301Z,99722.25
2023-03-26T10:09:09.229Z,99716.19
2023-03-26T10:12:02.672Z,99723.16
2023-03-26T10:14:37.921Z,99725.66
2023-03-26T10:17:20.822Z,99711.28
2023-03-26T10:20:18.148Z,99714.81
2023-03-26T10:23:06.816Z,99713.56
2023-03-26T10:25:58.111Z,99709.66
2023-03-26T10:28:47.280Z,99712.03
2023-03-26T10:31:34.434Z,99708.75
2023-03-26T10:34:52.769Z,99716.94
2023-03-26T10:37:35.112Z,99708.38
2023-03-26T10:40:31.623Z,99712.44
2023-03-26T10:43:36.695Z,99717.91
2023-03-26T10:46:51.928Z,99711.88
2023-03-26T10:49:54.520Z,99718.38
2023-03-26T10:52:33.766Z,99707.97
2023-03-26T10:55:25.053Z,99707.66
2023-03-26T10:58:16.839Z,99702.00
2023-03-26T11:01:12.592Z,99699.75
2023-03-26T11:03:57.409Z,99696.03
2023-03-26T11:06:47.610Z,99697.66
2023-03-26T11:09:33.113Z,99693.56
2023-03-26T11:12:35.459Z,99697.63
2023-03-26T11:15:12.147Z,99685.66
2023-03-26T11:17:43.809Z,99691.34
2023-03-26T11:20:22.177Z,99691.34
2023-03-26T11:23:17.318Z,99687.66
2023-03-26T11:25:57.173Z,99694.50
2023-03-26T11:28:32.820Z,99685.75
2023-03-26T11:31:13.190Z,99684.38
2023-03-26T11:33:57.709Z,99689.56
2023-03-26T11:36:30.819Z,99683.53
2023-03-26T11:39:04.864Z,99676.50
2023-03-26T11:41:33.687Z,99686.59
2023-03-26T11:44:13.609Z,99681.44
2023-03-26T11:46:44.868Z,99678.00
2023-03-26T11:49:15.354Z,99671.34
2023-03-26T11:51:44.995Z,99675.34
2023-03-26T11:54:13.923Z,99665.44
2023-03-26T11:57:05.147Z,99663.59
2023-03-26T11:59:57.213Z,99653.50
2023-03-26T12:02:34.238Z,99654.41
2023-03-26T12:05:15.413Z,99650.41
2023-03-26T12:07:57.099Z,99645.19
2023-03-26T12:10:27.673Z,99650.25
2023-03-26T12:12:58.417Z,99639.69
2023-03-26T12:15:26.672Z,99637.00
2023-03-26T12:17:56.980Z,99635.16
2023-03-26T12:20:34.706Z,99644.03
2023-03-26T12:23:06.442Z,99634.16
2023-03-26T12:25:36.359Z,99635.16
2023-03-26T12:28:18.877Z,99637.69
2023-03-26T12:31:07.433Z,99626.28
2023-03-26T12:33:38.870Z,99629.66
2023-03-26T12:36:29.347Z,99622.91
2023-03-26T12:39:15.969Z,99630.81
2023-03-26T12:43:51.654Z,99635.00
2023-03-26T12:44:55.429Z,99633.16
2023-03-26T12:47:58.146Z,99640.50
2023-03-26T12:50:34.616Z,99633.84
2023-03-26T12:53:37.480Z,99637.84
2023-03-26T12:56:19.980Z,99643.19
2023-03-26T12:59:02.312Z,99638.53
2023-03-26T13:01:50.720Z,99630.50
2023-03-26T13:04:38.403Z,99631.31
2023-03-26T13:07:34.054Z,99624.28
2023-03-26T13:10:16.883Z,99627.41
2023-03-26T13:13:22.340Z,99625.44
2023-03-26T13:15:52.927Z,99619.75
2023-03-26T13:18:43.576Z,99627.09
2023-03-26T13:21:32.811Z,99621.59
2023-03-26T13:24:33.727Z,99620.75
2023-03-26T13:27:19.384Z,99614.81
2023-03-26T13:30:01.010Z,99608.03
2023-03-26T13:32:31.181Z,99613.59
2023-03-26T13:35:31.168Z,99613.97
2023-03-26T13:38:35.792Z,99613.69
2023-03-26T13:41:25.072Z,99614.22
2023-03-26T13:44:16.031Z,99613.91
2023-03-26T13:46:55.706Z,99607.56
2023-03-26T13:49:33.070Z,99596.50
2023-03-26T13:52:10.899Z,99602.06
2023-03-26T13:55:07.517Z,99599.13
2023-03-26T13:57:47.019Z,99601.56
2023-03-26T14:00:22.277Z,99606.38
2023-03-26T14:03:08.274Z,99595.13
2023-03-26T14:05:48.697Z,99599.66
2023-03-26T14:08:25.827Z,99592.63
2023-03-26T14:10:57.018Z,99590.91
2023-03-26T14:13:46.833Z,99594.47
2023-03-26T14:16:36.251Z,99593.59
2023-03-26T14:19:42.099Z,99596.28
2023-03-26T14:22:34.172Z,99591.09
2023-03-26T14:25:41.720Z,99595.75
2023-03-26T14:28:13.332Z,99592.25
2023-03-26T14:31:04.402Z,99595.09
2023-03-26T14:34:00.604Z,99589.03
2023-03-26T14:36:59.507Z,99589.72
2023-03-26T14:39:33.382Z,99592.97
2023-03-26T14:42:24.997Z,99588.97
2023-03-26T14:49:48.484Z,99579.66
2023-03-26T14:52:24.966Z,99587.03
2023-03-26T14:54:54.520Z,99582.34
2023-03-26T14:57:22.946Z,99581.03
2023-03-26T15:00:07.075Z,99577.81
2023-03-26T15:03:13.876Z,99577.72
2023-03-26T15:05:52.239Z,99576.13
2023-03-26T15:08:59.223Z,99568.94
2023-03-26T15:11:39.465Z,99565.91
2023-03-26T15:14:44.228Z,99564.53
2023-03-26T15:17:34.690Z,99563.69
2023-03-26T15:20:32.941Z,99563.13
2023-03-26T15:23:31.727Z,99566.91
2023-03-26T15:26:17.988Z,99574.69
2023-03-26T15:29:00.416Z,99576.38
2023-03-26T15:31:50.761Z,99570.50
2023-03-26T15:34:56.479Z,99568.25
2023-03-26T15:38:03.975Z,99569.97
2023-03-26T15:40:57.011Z,99577.84
2023-03-26T15:43:28.361Z,99578.38
2023-03-26T15:46:46.303Z,99577.06
2023-03-26T15:49:39.697Z,99577.41
2023-03-26T15:52:31.346Z,99573.56
2023-03-26T15:55:16.653Z,99576.16
2023-03-26T15:57:47.383Z,99571.72
2023-03-26T16:00:22.757Z,99572.94
2023-03-26T16:03:19.701Z,99569.44
2023-03-26T16:06:15.785Z,99575.63
2023-03-26T16:09:00.452Z,99572.34
2023-03-26T16:11:48.794Z,99576.84
2023-03-26T16:14:38.765Z,99568.09
2023-03-26T16:17:13.258Z,99563.84
2023-03-26T16:20:09.614Z,99568.28
2023-03-26T16:22:53.186Z,99581.25
2023-03-26T16:25:28.929Z,99576.41
2023-03-26T16:28:21.185Z,99571.50
2023-03-26T16:31:36.558Z,99583.03
2023-03-26T16:34:31.329Z,99586.03
2023-03-26T16:36:59.786Z,99585.09
2023-03-26T16:39:54.097Z,99579.03
2023-03-26T16:42:24.500Z,99595.94
2023-03-26T16:45:11.570Z,99584.25
2023-03-26T16:48:00.949Z,99600.34
2023-03-26T16:50:37.578Z,99587.69
2023-03-26T16:53:24.201Z,99595.25
2023-03-26T16:56:16.794Z,99596.09
2023-03-26T16:58:58.654Z,99601.28
2023-03-26T17:01:48.251Z,99604.81
2023-03-26T17:04:23.526Z,99610.19
2023-03-26T17:07:05.671Z,99607.00
2023-03-26T17:09:52.893Z,99614.00
2023-03-26T17:12:50.901Z,99616.31
2023-03-26T17:15:41.035Z,99611.84
2023-03-26T17:18:32.363Z,99615.19
2023-03-26T17:21:30.369Z,99621.06
2023-03-26T17:24:38.870Z,99624.13
2023-03-26T17:27:34.933Z,99623.91
2023-03-26T17:30:27.119Z,99634.91
2023-03-26T17:33:30.869Z,99627.19
2023-03-26T17:36:16.167Z,99628.19
2023-03-26T17:38:49.546Z,99626.81
2023-03-26T17:41:55.394Z,99631.22
2023-03-26T17:44:52.360Z,99629.50
2023-03-26T17:47:53.185Z,99629.34
2023-03-26T17:50:42.098Z,99625.75
2023-03-26T17:53:34.003Z,99629.66
2023-03-26T17:56:05.356Z,99638.03
2023-03-26T17:58:45.187Z,99634.19
2023-03-26T18:01:37.263Z,99631.84
2023-03-26T18:04:12.297Z,99637.38
2023-03-26T18:06:46.589Z,99643.00
2023-03-26T18:09:28.602Z,99643.50
2023-03-26T18:12:22.559Z,99643.31
2023-03-26T18:15:13.376Z,99642.25
2023-03-26T18:17:44.766Z,99643.09
2023-03-26T18:20:21.196Z,99655.69
2023-03-26T18:22:49.656Z,99649.63
2023-03-26T18:25:33.905Z,99650.78
2023-03-26T18:28:04.445Z,99653.09
2023-03-26T18:30:31.800Z,99651.44
2023-03-26T18:33:13.233Z,99640.06
2023-03-26T18:36:09.534Z,99651.63
2023-03-26T18:38:38.500Z,99645.13
2023-03-26T18:41:09.700Z,99649.28
2023-03-26T18:43:44.299Z,99655.09
2023-03-26T18:46:13.609Z,99656.50
2023-03-26T18:48:40.921Z,99658.47
2023-03-26T18:51:08.699Z,99655.56
2023-03-26T18:54:05.921Z,99663.94
2023-03-26T18:56:42.627Z,99665.09
2023-03-26T18:59:32.748Z,99663.81
2023-03-26T19:02:05.332Z,99656.91
2023-03-26T19:04:33.917Z,99653.63
2023-03-26T19:07:01.908Z,99657.78
2023-03-26T19:09:32.497Z,99662.63
2023-03-26T19:12:06.842Z,99657.03
2023-03-26T19:14:36.895Z,99661.94
2023-03-26T19:17:06.788Z,99661.13
2023-03-26T19:19:36.904Z,99672.63
2023-03-26T19:22:08.873Z,99664.44
2023-03-26T19:24:36.931Z,99663.28
2023-03-26T19:27:05.432Z,99671.50
2023-03-26T19:29:34.583Z,99675.09
2023-03-26T19:32:14.118Z,99671.78
2023-03-26T19:34:41.726Z,99677.66
2023-03-26T19:37:23.888Z,99676.00
2023-03-26T19:39:53.363Z,99682.72
2023-03-26T19:42:23.166Z,99689.31
2023-03-26T19:44:51.743Z,99690.31
2023-03-26T19:47:26.779Z,99687.19
2023-03-26T19:50:07.308Z,99685.63
2023-03-26T19:52:38.483Z,99693.94
2023-03-26T19:55:12.126Z,99691.56
2023-03-26T19:57:39.341Z,99693.41
2023-03-26T20:00:13.701Z,99696.25
2023-03-26T20:02:42.419Z,99700.03
2023-03-26T20:05:27.116Z,99688.84
2023-03-26T20:07:57.419Z,99693.75
2023-03-26T20:10:25.055Z,99688.91
2023-03-26T20:12:52.703Z,99703.94
2023-03-26T20:15:25.806Z,99701.59
2023-03-26T20:17:55.169Z,99707.25
2023-03-26T20:20:27.098Z,99712.03
2023-03-26T20:22:55.007Z,99707.59
2023-03-26T20:25:33.250Z,99705.59
2023-03-26T20:28:00.522Z,99710.91
2023-03-26T20:30:37.449Z,99712.81
2023-03-26T20:33:13.448Z,99721.09
2023-03-26T20:35:41.705Z,99717.41
2023-03-26T20:38:09.825Z,99723.28
2023-03-26T20:40:38.239Z,99722.97
2023-03-26T20:43:14.493Z,99734.66
2023-03-26T20:45:41.949Z,99748.53
2023-03-26T20:48:10.356Z,99743.50
2023-03-26T20:50:41.604Z,99753.47
2023-03-26T20:53:18.014Z,99752.94
2023-03-26T20:55:46.193Z,99755.22
2023-03-26T20:58:17.806Z,99751.47
2023-03-26T21:01:00.904Z,99753.22
2023-03-26T21:03:28.292Z,99761.09
2023-03-26T21:06:01.032Z,99752.41
2023-03-26T21:08:34.671Z,99757.22
2023-03-26T21:11:05.401Z,99755.41
2023-03-26T21:13:45.368Z,99756.91
2023-03-26T21:16:13.317Z,99765.78
2023-03-26T21:18:41.792Z,99767.94
2023-03-26T21:21:39.587Z,99765.94
2023-03-26T21:24:29.427Z,99774.16
2023-03-26T21:27:12.855Z,99781.19
2023-03-26T21:29:40.390Z,99777.34
2023-03-26T21:32:10.397Z,99785.63
2023-03-26T21:37:07.190Z,99781.66
2023-03-26T21:39:34.940Z,99784.34
2023-03-26T21:42:05.454Z,99777.28
2023-03-26T21:44:34.605Z,99787.69
2023-03-26T21:47:02.154Z,99791.09
2023-03-26T21:49:29.669Z,99791.75
2023-03-26T21:51:57.089Z,99793.75
2023-03-26T21:54:26.367Z,99787.56
2023-03-26T21:57:08.481Z,99787.91
2023-03-26T21:59:47.794Z,99785.41
2023-03-26T22:02:40.403Z,99784.41
2023-03-26T22:05:35.676Z,99788.28
2023-03-26T22:08:07.018Z,99801.59
2023-03-26T22:10:34.475Z,99789.78
2023-03-26T22:13:01.962Z,99793.22
2023-03-26T22:15:30.477Z,99799.44
2023-03-26T22:18:04.121Z,99794.53
2023-03-26T22:20:31.745Z,99802.28
2023-03-26T22:22:59.704Z,99806.59
2023-03-26T22:25:27.596Z,99800.53
2023-03-26T22:27:54.753Z,99803.66
2023-03-26T22:30:22.139Z,99801.66
2023-03-26T22:32:50.166Z,99810.00
2023-03-26T22:35:17.961Z,99809.47
2023-03-26T22:37:45.363Z,99818.22
2023-03-26T22:40:16.090Z,99827.09
2023-03-26T22:42:43.446Z,99819.19
2023-03-26T22:45:11.195Z,99821.66
2023-03-26T22:47:38.714Z,99828.53
2023-03-26T22:50:07.516Z,99844.63
2023-03-26T22:52:35.903Z,99835.75
2023-03-26T22:55:04.698Z,99837.91
2023-03-26T22:57:31.883Z,99836.91
2023-03-26T23:00:07.782Z,99844.25
2023-03-26T23:02:35.040Z,99848.47
2023-03-26T23:05:02.379Z,99850.47
2023-03-26T23:07:31.395Z,99856.97
2023-03-26T23:09:58.798Z,99861.31
2023-03-26T23:12:26.365Z,99855.00
2023-03-26T23:14:53.712Z,99864.31
2023-03-26T23:17:21.266Z,99864.00
2023-03-26T23:19:49.482Z,99864.84
2023-03-26T23:22:16.787Z,99873.06
2023-03-26T23:24:44.543Z,99868.69
2023-03-26T23:27:12.824Z,99872.34
2023-03-26T23:29:40.048Z,99877.03
2023-03-26T23:32:24.253Z,99877.88
2023-03-26T23:34:52.775Z,99882.41
2023-03-26T23:37:23.195Z,99885.38
2023-03-26T23:39:51.859Z,99892.41
2023-03-26T23:42:28.816Z,99897.06
2023-03-26T23:44:57.402Z,99901.75
2023-03-26T23:47:25.355Z,99903.31
2023-03-26T23:49:52.572Z,99901.75
2023-03-26T23:52:19.738Z,99910.78
2023-03-26T23:54:47.291Z,99917.13
2023-03-26T23:57:14.551Z,99911.78
2023-03-26T23:59:42.063Z,99929.00
